Home > Products > Valid Products > MTR

000
SAUS44 KSHV 281558
MTRAQV
METAR KAQV 281556Z AUTO 17006KT 10SM CLR 17/06 A3018 RMK AO2 SLP218
T01720056





000
SAUS44 KSHV 281555
MTRBKB
METAR KBKB 281554Z AUTO 10SM CLR 18/06 A3019 RMK AO2 SLP250
T01830056





000
SAUS44 KSHV 281458
MTRAQV
METAR KAQV 281456Z AUTO VRB05KT 10SM CLR 14/04 A3019 RMK AO2 SLP222
T01390044 50008





000
SAUS44 KSHV 281458
MTRAQV
METAR KAQV 281456Z AUTO VRB05KT 10SM CLR 14/04 A3019 RMK AO2 SLP222
T01390044 50008





000
SAUS44 KSHV 281455
MTRBKB
METAR KBKB 281454Z AUTO 13006KT 10SM CLR 16/05 A3018 RMK AO2 SLP247
T01610050 50006





000
SAUS44 KSHV 281455
MTRBKB
METAR KBKB 281454Z AUTO 13006KT 10SM CLR 16/05 A3018 RMK AO2 SLP247
T01610050 50006





000
SAUS44 KSHV 281357
MTRAQV
METAR KAQV 281356Z AUTO 14006KT 10SM CLR 11/05 A3020 RMK AO2 SLP225
T01110050





000
SAUS44 KSHV 281355
MTRBKB
METAR KBKB 281354Z AUTO VRB05KT 10SM CLR 13/04 A3020 RMK AO2 PRESRR
SLP253 T01280044





000
SAUS44 KSHV 281355
MTRBKB
METAR KBKB 281354Z AUTO VRB05KT 10SM CLR 13/04 A3020 RMK AO2 PRESRR
SLP253 T01280044





000
SAUS44 KSHV 281257
MTRAQV
METAR KAQV 281256Z AUTO VRB04KT 10SM CLR 08/05 A3016 RMK AO2 SLP213
T00830050





000
SAUS44 KSHV 281257
MTRAQV
METAR KAQV 281256Z AUTO VRB04KT 10SM CLR 08/05 A3016 RMK AO2 SLP213
T00830050





000
SAUS44 KSHV 281255
MTRBKB
METAR KBKB 281254Z AUTO 00000KT 10SM CLR 10/04 A3017 RMK AO2 SLP243
T01000044





000
SAUS44 KSHV 281255
MTRBKB
METAR KBKB 281254Z AUTO 00000KT 10SM CLR 10/04 A3017 RMK AO2 SLP243
T01000044





000
SAUS44 KSHV 281157
MTRAQV
METAR KAQV 281156Z AUTO 13004KT 10SM CLR 07/04 A3016 RMK AO2 SLP213
T00720044 10094 20056 51009





000
SAUS44 KSHV 281157
MTRAQV
METAR KAQV 281156Z AUTO 13004KT 10SM CLR 07/04 A3016 RMK AO2 SLP213
T00720044 10094 20056 51009





000
SAUS44 KSHV 281155
MTRBKB
METAR KBKB 281154Z AUTO 00000KT 10SM CLR 07/04 A3016 RMK AO2 SLP241
T00720044 10117 20067 51009





000
SAUS44 KSHV 281155
MTRBKB
METAR KBKB 281154Z AUTO 00000KT 10SM CLR 07/04 A3016 RMK AO2 SLP241
T00720044 10117 20067 51009





000
SAUS44 KSHV 281057
MTRAQV
METAR KAQV 281056Z AUTO 00000KT 8SM CLR 06/05 A3016 RMK AO2 SLP212
T00610050





000
SAUS44 KSHV 281057
MTRAQV
METAR KAQV 281056Z AUTO 00000KT 8SM CLR 06/05 A3016 RMK AO2 SLP212
T00610050





000
SAUS44 KSHV 281055
MTRBKB
METAR KBKB 281054Z AUTO 00000KT 10SM CLR 07/04 A3016 RMK AO2 SLP240
T00670039





000
SAUS44 KSHV 281055
MTRBKB
METAR KBKB 281054Z AUTO 00000KT 10SM CLR 07/04 A3016 RMK AO2 SLP240
T00670039





000
SAUS44 KSHV 280957
MTRAQV
METAR KAQV 280956Z AUTO 00000KT 10SM CLR 07/05 A3014 RMK AO2 SLP207
T00720050





000
SAUS44 KSHV 280955
MTRBKB
METAR KBKB 280954Z AUTO 00000KT 10SM CLR 08/04 A3014 RMK AO2 SLP235
T00780044





000
SAUS44 KSHV 280857
MTRAQV
METAR KAQV 280856Z AUTO 00000KT 10SM CLR 09/05 A3013 RMK AO2 SLP203
T00890050 58012





000
SAUS44 KSHV 280855
MTRBKB
METAR KBKB 280854Z AUTO 00000KT 10SM CLR 09/05 A3013 RMK AO2 SLP232
T00890050 55008





000
SAUS44 KSHV 280757
MTRAQV
METAR KAQV 280756Z AUTO 05004KT 10SM CLR 09/05 A3014 RMK AO2 SLP206
T00940050





000
SAUS44 KSHV 280757
MTRAQV
METAR KAQV 280756Z AUTO 05004KT 10SM CLR 09/05 A3014 RMK AO2 SLP206
T00940050





000
SAUS44 KSHV 280755
MTRBKB
METAR KBKB 280754Z AUTO 00000KT 10SM CLR 09/04 A3013 RMK AO2 SLP232
T00940044





000
SAUS44 KSHV 280755
MTRBKB
METAR KBKB 280754Z AUTO 00000KT 10SM CLR 09/04 A3013 RMK AO2 SLP232
T00940044





000
SAUS44 KSHV 280657
MTRAQV
METAR KAQV 280656Z AUTO 00000KT 10SM CLR 08/06 A3016 RMK AO2 SLP212
T00780056





000
SAUS44 KSHV 280655
MTRBKB
METAR KBKB 280654Z AUTO 00000KT 10SM CLR 10/04 A3014 RMK AO2 SLP236
T01000039





000
SAUS44 KSHV 280557
MTRAQV
METAR KAQV 280556Z AUTO 00000KT 10SM CLR 09/06 A3017 RMK AO2 SLP215
T00890061 10194 20089 402390050 51013





000
SAUS44 KSHV 280557
MTRAQV
METAR KAQV 280556Z AUTO 00000KT 10SM CLR 09/06 A3017 RMK AO2 SLP215
T00890061 10194 20089 402390050 51013





000
SAUS44 KSHV 280555
MTRBKB
METAR KBKB 280554Z AUTO 00000KT 10SM CLR 12/04 A3016 RMK AO2 SLP240
T01170039 10206 20117 402500061 51014





000
SAUS44 KSHV 280555
MTRBKB
METAR KBKB 280554Z AUTO 00000KT 10SM CLR 12/04 A3016 RMK AO2 SLP240
T01170039 10206 20117 402500061 51014





000
SAUS44 KSHV 280457
MTRAQV
METAR KAQV 280456Z AUTO 00000KT 7SM CLR 09/07 A3016 RMK AO2 SLP212
T00940067





000
SAUS44 KSHV 280457
MTRAQV
METAR KAQV 280456Z AUTO 00000KT 7SM CLR 09/07 A3016 RMK AO2 SLP212
T00940067





000
SAUS44 KSHV 280455
MTRBKB
METAR KBKB 280454Z AUTO VRB03KT 10SM CLR 14/02 A3015 RMK AO2 SLP237
T01440022





000
SAUS44 KSHV 280455
MTRBKB
METAR KBKB 280454Z AUTO VRB03KT 10SM CLR 14/02 A3015 RMK AO2 SLP237
T01440022





000
SAUS44 KSHV 280357
MTRAQV
METAR KAQV 280356Z AUTO 00000KT 10SM CLR 10/06 A3015 RMK AO2 SLP211
T01000061





000
SAUS44 KSHV 280357 COR
MTRBKB
METAR KBKB 280354Z AUTO 01003KT 10SM CLR 14/02 A3014 RMK AO2 SLP234
T01440022





000
SAUS44 KSHV 280357
MTRAQV
METAR KAQV 280356Z AUTO 00000KT 10SM CLR 10/06 A3015 RMK AO2 SLP211
T01000061





000
SAUS44 KSHV 280356 COR
MTRBKB
METAR KBKB 280354Z AUTO 01003KT 10SM CLR 14/02 A3014 RMK AO2 SLP234
T01440022





000
SAUS44 KSHV 280355
MTRBKB
METAR KBKB 280354Z AUTO 01003KT 10SM CLR 14/02 A3014 RMK AO2 SLP234
T01440022





000
SAUS44 KSHV 280258
MTRAQV
METAR KAQV 280256Z AUTO 00000KT 10SM CLR 11/07 A3013 RMK AO2 SLP203
T01110067 53024





000
SAUS44 KSHV 280256
MTRBKB
METAR KBKB 280254Z AUTO 00000KT 10SM CLR 14/03 A3012 RMK AO2 SLP226
T01390028 53024





000
SAUS44 KSHV 280256
MTRBKB
METAR KBKB 280254Z AUTO 00000KT 10SM CLR 14/03 A3012 RMK AO2 SLP226
T01390028 53024





000
SAUS44 KSHV 280157
MTRAQV
METAR KAQV 280156Z AUTO 00000KT 10SM CLR 13/06 A3010 RMK AO2 SLP194
T01330056





000
SAUS44 KSHV 280157
MTRAQV
METAR KAQV 280156Z AUTO 00000KT 10SM CLR 13/06 A3010 RMK AO2 SLP194
T01330056





000
SAUS44 KSHV 280155
MTRBKB
METAR KBKB 280154Z AUTO 00000KT 10SM CLR 15/03 A3009 RMK AO2 SLP218
T01500033





000
SAUS44 KSHV 280057
MTRAQV
METAR KAQV 280056Z AUTO 36003KT 10SM CLR 17/02 A3008 RMK AO2 SLP185
T01670022





000
SAUS44 KSHV 280056
MTRBKB
METAR KBKB 280054Z AUTO 01004KT 10SM CLR 18/02 A3006 RMK AO2 SLP209
T01830022





000
SAUS44 KSHV 272357
MTRAQV
METAR KAQV 272356Z AUTO 36008KT 10SM CLR 19/02 A3006 RMK AO2 SLP179
T01940017 10239 20194 53012





000
SAUS44 KSHV 272357
MTRAQV
METAR KAQV 272356Z AUTO 36008KT 10SM CLR 19/02 A3006 RMK AO2 SLP179
T01940017 10239 20194 53012





000
SAUS44 KSHV 272355
MTRBKB
METAR KBKB 272354Z AUTO 10SM CLR 21/03 A3004 RMK AO2 SLP202
T02060028 10250 20206 53011





000
SAUS44 KSHV 272355
MTRBKB
METAR KBKB 272354Z AUTO 10SM CLR 21/03 A3004 RMK AO2 SLP202
T02060028 10250 20206 53011





000
SAUS44 KSHV 272257
MTRAQV
METAR KAQV 272256Z AUTO 35011G17KT 320V020 10SM CLR 21/02 A3004 RMK
AO2 SLP171 T02110017





000
SAUS44 KSHV 272257
MTRAQV
METAR KAQV 272256Z AUTO 35011G17KT 320V020 10SM CLR 21/02 A3004 RMK
AO2 SLP171 T02110017





000
SAUS44 KSHV 272255
MTRBKB
METAR KBKB 272254Z AUTO VRB06G15KT 10SM CLR 23/03 A3002 RMK AO2
SLP192 T02330033





000
SAUS44 KSHV 272255
MTRBKB
METAR KBKB 272254Z AUTO VRB06G15KT 10SM CLR 23/03 A3002 RMK AO2
SLP192 T02330033





000
SAUS44 KSHV 272157
MTRAQV
METAR KAQV 272156Z AUTO 33008G18KT 280V360 10SM CLR 23/03 A3002 RMK
AO2 SLP166 T02280033





000
SAUS44 KSHV 272155
MTRBKB
METAR KBKB 272154Z AUTO VRB06KT 10SM CLR 25/03 A3000 RMK AO2 SLP188
T02500033





000
SAUS44 KSHV 272058
MTRAQV
METAR KAQV 272056Z AUTO 32007KT 10SM CLR 23/03 A3002 RMK AO2 SLP166
T02330028 56022





000
SAUS44 KSHV 272056
MTRBKB
METAR KBKB 272054Z AUTO 10SM CLR 24/02 A3001 RMK AO2 SLP190
T02440022 56024





000
SAUS44 KSHV 271957
MTRAQV
METAR KAQV 271956Z AUTO 10SM CLR 23/02 A3004 RMK AO2 SLP172
T02280022





000
SAUS44 KSHV 271955
MTRBKB
METAR KBKB 271954Z AUTO VRB05KT 10SM CLR 24/02 A3002 RMK AO2 SLP195
T02390022





000
SAUS44 KSHV 271955
MTRBKB
METAR KBKB 271954Z AUTO VRB05KT 10SM CLR 24/02 A3002 RMK AO2 SLP195
T02390022





000
SAUS44 KSHV 271857
MTRAQV
METAR KAQV 271856Z AUTO 32008G17KT 260V050 10SM CLR 21/02 A3006 RMK
AO2 SLP179 T02110022





000
SAUS44 KSHV 271857
MTRAQV
METAR KAQV 271856Z AUTO 32008G17KT 260V050 10SM CLR 21/02 A3006 RMK
AO2 SLP179 T02110022





000
SAUS44 KSHV 271855
MTRBKB
METAR KBKB 271854Z AUTO 30009G19KT 220V350 10SM CLR 23/01 A3005 RMK
AO2 SLP204 T02280011





000
SAUS44 KSHV 271855
MTRBKB
METAR KBKB 271854Z AUTO 30009G19KT 220V350 10SM CLR 23/01 A3005 RMK
AO2 SLP204 T02280011





000
SAUS44 KSHV 271758
MTRAQV
METAR KAQV 271756Z AUTO 28008G17KT 240V320 10SM CLR 21/02 A3009 RMK
AO2 SLP188 T02060017 10206 20050 58005





000
SAUS44 KSHV 271758
MTRAQV
METAR KAQV 271756Z AUTO 28008G17KT 240V320 10SM CLR 21/02 A3009 RMK
AO2 SLP188 T02060017 10206 20050 58005





000
SAUS44 KSHV 271755
MTRBKB
METAR KBKB 271754Z AUTO VRB04KT 10SM CLR 21/05 A3008 RMK AO2 SLP215
T02110050 10211 20061 58006





000
SAUS44 KSHV 271755
MTRBKB
METAR KBKB 271754Z AUTO VRB04KT 10SM CLR 21/05 A3008 RMK AO2 SLP215
T02110050 10211 20061 58006





000
SAUS44 KSHV 271658
MTRAQV
METAR KAQV 271656Z AUTO VRB03KT 10SM CLR 18/02 A3010 RMK AO2 SLP193
T01830017





000
SAUS44 KSHV 271658
MTRAQV
METAR KAQV 271656Z AUTO VRB03KT 10SM CLR 18/02 A3010 RMK AO2 SLP193
T01830017





000
SAUS44 KSHV 271655
MTRBKB
METAR KBKB 271654Z AUTO VRB05KT 10SM CLR 19/03 A3010 RMK AO2 SLP220
T01890028





000
SAUS44 KSHV 271557
MTRAQV
METAR KAQV 271556Z AUTO VRB03KT 10SM CLR 16/06 A3011 RMK AO2 SLP197
T01560056





000
SAUS44 KSHV 271555
MTRBKB
METAR KBKB 271554Z AUTO VRB04KT 10SM CLR 17/06 A3011 RMK AO2 SLP223
T01720061





000
SAUS44 KSHV 271458
MTRAQV
METAR KAQV 271456Z AUTO 00000KT 10SM CLR 13/08 A3010 RMK AO2 SLP194
T01280083 58002





000
SAUS44 KSHV 271455
MTRBKB
METAR KBKB 271454Z AUTO VRB03KT 10SM CLR 16/06 A3010 RMK AO2 SLP221
T01560061 50009





000
SAUS44 KSHV 271358
MTRAQV
METAR KAQV 271356Z AUTO 00000KT 10SM SCT002 10/08 A3012 RMK AO2
SLP199 T01000083





000
SAUS44 KSHV 271358
MTRAQV
METAR KAQV 271356Z AUTO 00000KT 10SM SCT002 10/08 A3012 RMK AO2
SLP199 T01000083





000
SAUS44 KSHV 271356
MTRBKB
METAR KBKB 271354Z AUTO 00000KT 10SM CLR 12/08 A3012 RMK AO2 SLP227
T01220083





000
SAUS44 KSHV 271356
MTRBKB
METAR KBKB 271354Z AUTO 00000KT 10SM CLR 12/08 A3012 RMK AO2 SLP227
T01220083





000
SAUS44 KSHV 271352
MTRAQV
SPECI KAQV 271351Z AUTO VRB03KT 10SM SCT002 09/08 A3012 RMK AO2





000
SAUS44 KSHV 271352
MTRAQV
SPECI KAQV 271351Z AUTO VRB03KT 10SM SCT002 09/08 A3012 RMK AO2





000
SAUS44 KSHV 271344
MTRAQV
SPECI KAQV 271342Z AUTO VRB03KT 4SM BR BKN002 09/08 A3012 RMK AO2
T00890078





000
SAUS44 KSHV 271315
MTRAQV
SPECI KAQV 271314Z AUTO 00000KT 10SM FEW002 09/07 A3012 RMK AO2
T00890072





000
SAUS44 KSHV 271315
MTRAQV
SPECI KAQV 271314Z AUTO 00000KT 10SM FEW002 09/07 A3012 RMK AO2
T00890072





000
SAUS44 KSHV 271257
MTRAQV
METAR KAQV 271256Z AUTO 00000KT 10SM CLR 07/06 A3011 RMK AO2 SLP196
T00670056





000
SAUS44 KSHV 271257
MTRAQV
METAR KAQV 271256Z AUTO 00000KT 10SM CLR 07/06 A3011 RMK AO2 SLP196
T00670056





000
SAUS44 KSHV 271255
MTRBKB
METAR KBKB 271254Z AUTO 00000KT 10SM CLR 07/05 A3010 RMK AO2 SLP223
T00720050





000
SAUS44 KSHV 271157
MTRAQV
METAR KAQV 271156Z AUTO 00000KT 10SM CLR 05/04 A3008 RMK AO2 SLP188
T00500039 10083 20050 53007





000
SAUS44 KSHV 271155
MTRBKB
METAR KBKB 271154Z AUTO 00000KT 10SM CLR 06/04 A3007 RMK AO2 SLP213
T00610039 10111 20061 53011





000
SAUS44 KSHV 271155
MTRBKB
METAR KBKB 271154Z AUTO 00000KT 10SM CLR 06/04 A3007 RMK AO2 SLP213
T00610039 10111 20061 53011





000
SAUS44 KSHV 271057
MTRAQV
METAR KAQV 271056Z AUTO 00000KT 10SM CLR 05/04 A3005 RMK AO2 SLP177
T00500039





000
SAUS44 KSHV 271057
MTRAQV
METAR KAQV 271056Z AUTO 00000KT 10SM CLR 05/04 A3005 RMK AO2 SLP177
T00500039





000
SAUS44 KSHV 271055
MTRBKB
METAR KBKB 271054Z AUTO 00000KT 10SM CLR 07/04 A3005 RMK AO2 SLP448
T00670039





000
SAUS44 KSHV 271055
MTRBKB
METAR KBKB 271054Z AUTO 00000KT 10SM CLR 07/04 A3005 RMK AO2 SLP448
T00670039





000
SAUS44 KSHV 270957
MTRAQV
METAR KAQV 270956Z AUTO 00000KT 10SM CLR 06/04 A3005 RMK AO2 SLP175
T00610044





000
SAUS44 KSHV 270955
MTRBKB
METAR KBKB 270954Z AUTO 00000KT 10SM CLR 08/05 A3004 RMK AO2 SLP203
T00780050





000
SAUS44 KSHV 270857
MTRAQV
METAR KAQV 270856Z AUTO 00000KT 10SM CLR 07/05 A3006 RMK AO2 SLP179
T00670050 58001





000
SAUS44 KSHV 270857
MTRAQV
METAR KAQV 270856Z AUTO 00000KT 10SM CLR 07/05 A3006 RMK AO2 SLP179
T00670050 58001





000
SAUS44 KSHV 270856
MTRBKB
METAR KBKB 270854Z AUTO 00000KT 10SM CLR 08/06 A3004 RMK AO2 SLP202
T00780056 58004





000
SAUS44 KSHV 270757
MTRAQV
METAR KAQV 270756Z AUTO 00000KT 10SM CLR 07/06 A3006 RMK AO2 SLP180
T00670056





000
SAUS44 KSHV 270757
MTRAQV
METAR KAQV 270756Z AUTO 00000KT 10SM CLR 07/06 A3006 RMK AO2 SLP180
T00670056





000
SAUS44 KSHV 270755
MTRBKB
METAR KBKB 270754Z AUTO 00000KT 10SM CLR 09/07 A3005 RMK AO2 SLP203
T00940067





000
SAUS44 KSHV 270657
MTRAQV
METAR KAQV 270656Z AUTO 00000KT 10SM CLR 08/06 A3007 RMK AO2 SLP182
T00780061





000
SAUS44 KSHV 270657
MTRAQV
METAR KAQV 270656Z AUTO 00000KT 10SM CLR 08/06 A3007 RMK AO2 SLP182
T00780061





000
SAUS44 KSHV 270655
MTRBKB
METAR KBKB 270654Z AUTO 35003KT 10SM CLR 10/07 A3005 RMK AO2 SLP205
T01000067





000
SAUS44 KSHV 270655
MTRBKB
METAR KBKB 270654Z AUTO 35003KT 10SM CLR 10/07 A3005 RMK AO2 SLP205
T01000067





000
SAUS44 KSHV 270557
MTRAQV
METAR KAQV 270556Z AUTO 00000KT 10SM CLR 08/07 A3006 RMK AO2 SLP180
T00830072 10139 20083 402170083 52002





000
SAUS44 KSHV 270557
MTRAQV
METAR KAQV 270556Z AUTO 00000KT 10SM CLR 08/07 A3006 RMK AO2 SLP180
T00830072 10139 20083 402170083 52002





000
SAUS44 KSHV 270555
MTRBKB
METAR KBKB 270554Z AUTO 00000KT 10SM CLR 11/07 A3005 RMK AO2 SLP204
T01110067 10144 20111 402390111 53004





000
SAUS44 KSHV 270555
MTRBKB
METAR KBKB 270554Z AUTO 00000KT 10SM CLR 11/07 A3005 RMK AO2 SLP204
T01110067 10144 20111 402390111 53004





000
SAUS44 KSHV 270457
MTRAQV
METAR KAQV 270456Z AUTO 35003KT 10SM CLR 09/08 A3006 RMK AO2 SLP179
T00940078





000
SAUS44 KSHV 270457
MTRAQV
METAR KAQV 270456Z AUTO 35003KT 10SM CLR 09/08 A3006 RMK AO2 SLP179
T00940078





000
SAUS44 KSHV 270455
MTRBKB
METAR KBKB 270454Z AUTO VRB03KT 10SM CLR 12/07 A3004 RMK AO2 SLP201
T01220072





000
SAUS44 KSHV 270455
MTRBKB
METAR KBKB 270454Z AUTO VRB03KT 10SM CLR 12/07 A3004 RMK AO2 SLP201
T01220072





000
SAUS44 KSHV 270357
MTRAQV
METAR KAQV 270356Z AUTO 36005KT 10SM CLR 12/08 A3006 RMK AO2 SLP178
T01170078





000
SAUS44 KSHV 270355
MTRBKB
METAR KBKB 270354Z AUTO VRB05G14KT 10SM BKN070 13/07 A3004 RMK AO2
SLP199 T01330072





000
SAUS44 KSHV 270257
MTRAQV
METAR KAQV 270256Z AUTO 36006KT 10SM FEW021 SCT027 BKN070 13/08
A3006 RMK AO2 SLP177 T01280083 51020





000
SAUS44 KSHV 270257
MTRAQV
METAR KAQV 270256Z AUTO 36006KT 10SM FEW021 SCT027 BKN070 13/08
A3006 RMK AO2 SLP177 T01280083 51020





000
SAUS44 KSHV 270256
MTRBKB
METAR KBKB 270254Z AUTO VRB06G15KT 10SM FEW024 SCT029 OVC060 14/08
A3004 RMK AO2 SLP200 T01390078 53029





000
SAUS44 KSHV 270256
MTRAQV
SPECI KAQV 270254Z AUTO 36005KT 10SM FEW021 SCT027 BKN070 13/08
A3006 RMK AO2





000
SAUS44 KSHV 270256
MTRAQV
SPECI KAQV 270254Z AUTO 36005KT 10SM FEW021 SCT027 BKN070 13/08
A3006 RMK AO2





000
SAUS44 KSHV 270256
MTRBKB
METAR KBKB 270254Z AUTO VRB06G15KT 10SM FEW024 SCT029 OVC060 14/08
A3004 RMK AO2 SLP200 T01390078 53029





000
SAUS44 KSHV 270248
MTRAQV
SPECI KAQV 270247Z AUTO VRB05KT 10SM SCT021 BKN027 OVC065 13/08
A3005 RMK AO2 T01280083





000
SAUS44 KSHV 270248
MTRAQV
SPECI KAQV 270247Z AUTO VRB05KT 10SM SCT021 BKN027 OVC065 13/08
A3005 RMK AO2 T01280083





000
SAUS44 KSHV 270223
MTRAQV
SPECI KAQV 270222Z AUTO 01007G16KT 10SM FEW021 BKN030 OVC065 13/09
A3004 RMK AO2 T01330089





000
SAUS44 KSHV 270157
MTRAQV
METAR KAQV 270156Z AUTO 36008KT 300V020 10SM OVC025 13/09 A3003 RMK
AO2 SLP168 T01330089





000
SAUS44 KSHV 270155
MTRBKB
METAR KBKB 270154Z AUTO 36008KT 320V030 10SM BKN021 OVC040 14/09
A3001 RMK AO2 SLP191 T01440089





000
SAUS44 KSHV 270155
MTRBKB
METAR KBKB 270154Z AUTO 36008KT 320V030 10SM BKN021 OVC040 14/09
A3001 RMK AO2 SLP191 T01440089





000
SAUS44 KSHV 270058
MTRAQV
METAR KAQV 270056Z AUTO 36008KT 10SM BKN018 BKN024 OVC041 13/10
A3000 RMK AO2 SLP158 T01330100





000
SAUS44 KSHV 270058
MTRAQV
METAR KAQV 270056Z AUTO 36008KT 10SM BKN018 BKN024 OVC041 13/10
A3000 RMK AO2 SLP158 T01330100





000
SAUS44 KSHV 270055
MTRBKB
METAR KBKB 270054Z AUTO 36007KT 310V020 10SM OVC018 14/10 A2998 RMK
AO2 SLP180 T01440100





000
SAUS44 KSHV 270055
MTRBKB
METAR KBKB 270054Z AUTO 36007KT 310V020 10SM OVC018 14/10 A2998 RMK
AO2 SLP180 T01440100





000
SAUS44 KSHV 270042
MTRBKB
SPECI KBKB 270041Z AUTO VRB05KT 10SM OVC016 14/10 A2997 RMK AO2
T01440100





000
SAUS44 KSHV 270042
MTRBKB
SPECI KBKB 270041Z AUTO VRB05KT 10SM OVC016 14/10 A2997 RMK AO2
T01440100





000
SAUS44 KSHV 270007
MTRAQV
SPECI KAQV 270005Z AUTO 36006KT 10SM SCT016 BKN024 OVC032 13/11
A2998 RMK AO2 T01330111





000
SAUS44 KSHV 270007
MTRAQV
SPECI KAQV 270005Z AUTO 36006KT 10SM SCT016 BKN024 OVC032 13/11
A2998 RMK AO2 T01330111





000
SAUS44 KSHV 262358 COR
MTRBKB
METAR KBKB 262354Z AUTO VRB03KT 4SM HZ OVC011 14/12 A2996 RMK AO2
RAB23E53 CIG 007V013 SLP172 P0000 60000 T01440117 10239 20144 53024





000
SAUS44 KSHV 262358 COR
MTRBKB
METAR KBKB 262354Z AUTO VRB03KT 4SM HZ OVC011 14/12 A2996 RMK AO2
RAB23E53 CIG 007V013 SLP172 P0000 60000 T01440117 10239 20144 53024





000
SAUS44 KSHV 262357
MTRAQV
METAR KAQV 262356Z AUTO 36008KT 10SM BKN014 BKN019 OVC025 14/11
A2998 RMK AO2 RAE18 SLP150 P0000 60000 T01390111 10211 20133 51014





000
SAUS44 KSHV 262357
MTRAQV
METAR KAQV 262356Z AUTO 36008KT 10SM BKN014 BKN019 OVC025 14/11
A2998 RMK AO2 RAE18 SLP150 P0000 60000 T01390111 10211 20133 51014





000
SAUS44 KSHV 262356 COR
MTRBKB
METAR KBKB 262354Z AUTO VRB03KT 4SM HZ OVC011 14/12 A2996 RMK AO2
RAB23E53 CIG 007V013 SLP172 P0000 60000 T01440117 10239 20144 53024





000
SAUS44 KSHV 262356 COR
MTRBKB
METAR KBKB 262354Z AUTO VRB03KT 4SM HZ OVC011 14/12 A2996 RMK AO2
RAB23E53 CIG 007V013 SLP172 P0000 60000 T01440117 10239 20144 53024





000
SAUS44 KSHV 262355
MTRAQV
SPECI KAQV 262353Z AUTO 36008KT 10SM BKN014 BKN021 OVC025 14/11
A2998 RMK AO2 RAE18 P0000





000
SAUS44 KSHV 262355
MTRAQV
SPECI KAQV 262353Z AUTO 36008KT 10SM BKN014 BKN021 OVC025 14/11
A2998 RMK AO2 RAE18 P0000





000
SAUS44 KSHV 262340
MTRAQV
SPECI KAQV 262339Z AUTO 36010G16KT 10SM SCT012 OVC026 13/11 A2996
RMK AO2 RAE18 P0000 T01330111





000
SAUS44 KSHV 262340
MTRAQV
SPECI KAQV 262339Z AUTO 36010G16KT 10SM SCT012 OVC026 13/11 A2996
RMK AO2 RAE18 P0000 T01330111





000
SAUS44 KSHV 262314
MTRAQV
SPECI KAQV 262313Z AUTO 35006G15KT 5SM -RA BR BKN008 OVC014 13/12
A2996 RMK AO2 CIG 006V011 P0000 T01330122





000
SAUS44 KSHV 262314
MTRAQV
SPECI KAQV 262313Z AUTO 35006G15KT 5SM -RA BR BKN008 OVC014 13/12
A2996 RMK AO2 CIG 006V011 P0000 T01330122





000
SAUS44 KSHV 262306
MTRBKB
SPECI KBKB 262305Z AUTO VRB06KT 10SM OVC014 16/11 A2993 RMK AO2
T01560111





000
SAUS44 KSHV 262257
MTRAQV
METAR KAQV 262256Z AUTO 35008KT 4SM -RA BR OVC010 13/12 A2995 RMK
AO2 CIG 006V013 SLP140 P0000 T01330117





000
SAUS44 KSHV 262257
MTRAQV
METAR KAQV 262256Z AUTO 35008KT 4SM -RA BR OVC010 13/12 A2995 RMK
AO2 CIG 006V013 SLP140 P0000 T01330117





000
SAUS44 KSHV 262255
MTRBKB
METAR KBKB 262254Z AUTO 10SM OVC015 16/11 A2993 RMK AO2 SLP162
T01610111





000
SAUS44 KSHV 262157
MTRAQV
METAR KAQV 262156Z AUTO 33008KT 290V010 5SM -RA BR OVC012 14/12
A2993 RMK AO2 RAB39 SLP136 P0000 T01440122





000
SAUS44 KSHV 262155
MTRBKB
METAR KBKB 262154Z AUTO VRB06KT 10SM OVC015 17/12 A2991 RMK AO2
SLP157 T01670117





000
SAUS44 KSHV 262155
MTRBKB
METAR KBKB 262154Z AUTO VRB06KT 10SM OVC015 17/12 A2991 RMK AO2
SLP157 T01670117





000
SAUS44 KSHV 262101
MTRBKB
SPECI KBKB 262101Z AUTO 34006KT 10SM OVC016 18/12 A2989 RMK AO2
T01830122





000
SAUS44 KSHV 262057
MTRAQV
METAR KAQV 262056Z AUTO 30008KT 260V340 10SM OVC014 16/12 A2992 RMK
AO2 SLP131 T01560117 51016





000
SAUS44 KSHV 262057
MTRAQV
METAR KAQV 262056Z AUTO 30008KT 260V340 10SM OVC014 16/12 A2992 RMK
AO2 SLP131 T01560117 51016





000
SAUS44 KSHV 262055
MTRBKB
METAR KBKB 262054Z AUTO 33008KT 290V010 10SM OVC014 19/13 A2988 RMK
AO2 SLP147 60000 T01890128 51010





000
SAUS44 KSHV 262055
MTRBKB
METAR KBKB 262054Z AUTO 33008KT 290V010 10SM OVC014 19/13 A2988 RMK
AO2 SLP147 60000 T01890128 51010





000
SAUS44 KSHV 262049
MTRAQV
SPECI KAQV 262048Z AUTO 34008G20KT 10SM OVC014 16/12 A2992 RMK AO2
T01560117





000
SAUS44 KSHV 262028
MTRAQV
SPECI KAQV 262027Z AUTO 10SM OVC015 16/12 A2992 RMK AO2 T01610117





000
SAUS44 KSHV 261957
MTRAQV
METAR KAQV 261956Z AUTO 10SM OVC012 17/12 A2991 RMK AO2 SLP127
T01670117





000
SAUS44 KSHV 261955
MTRBKB
METAR KBKB 261954Z AUTO 32007KT 260V010 10SM OVC010 19/13 A2988 RMK
AO2 RAB1856E06 SLP146 P0000 T01890133





000
SAUS44 KSHV 261948
MTRBKB
SPECI KBKB 261947Z AUTO VRB05KT 10SM OVC010 19/14 A2988 RMK AO2
RAB1856E06 P0000 T01940144





000
SAUS44 KSHV 261931
MTRBKB
SPECI KBKB 261930Z AUTO VRB04KT 10SM BKN009 OVC014 19/15 A2988 RMK
AO2 RAB1856E06 P0000 T01890150





000
SAUS44 KSHV 261931
MTRBKB
SPECI KBKB 261930Z AUTO VRB04KT 10SM BKN009 OVC014 19/15 A2988 RMK
AO2 RAB1856E06 P0000 T01890150





000
SAUS44 KSHV 261910
MTRBKB
SPECI KBKB 261909Z AUTO 33007KT 260V010 10SM BKN014 OVC019 21/16
A2987 RMK AO2 RAB1856E06 P0000 T02060161





000
SAUS44 KSHV 261910
MTRBKB
SPECI KBKB 261909Z AUTO 33007KT 260V010 10SM BKN014 OVC019 21/16
A2987 RMK AO2 RAB1856E06 P0000 T02060161





000
SAUS44 KSHV 261857
MTRAQV
METAR KAQV 261856Z AUTO 32007KT 280V010 10SM OVC011 17/13 A2991 RMK
AO2 SLP128 T01720133





000
SAUS44 KSHV 261857
MTRAQV
METAR KAQV 261856Z AUTO 32007KT 280V010 10SM OVC011 17/13 A2991 RMK
AO2 SLP128 T01720133





000
SAUS44 KSHV 261855
MTRBKB
METAR KBKB 261854Z AUTO 00000KT 10SM BKN020 BKN028 OVC039 23/17
A2986 RMK AO2 SLP139 T02280167





000
SAUS44 KSHV 261855
MTRBKB
METAR KBKB 261854Z AUTO 00000KT 10SM BKN020 BKN028 OVC039 23/17
A2986 RMK AO2 SLP139 T02280167





000
SAUS44 KSHV 261840
MTRAQV
SPECI KAQV 261838Z AUTO 30008G15KT 280V340 10SM OVC010 17/14 A2991
RMK AO2 CIG 007V012 PRESRR T01720139





000
SAUS44 KSHV 261840
MTRAQV
SPECI KAQV 261838Z AUTO 30008G15KT 280V340 10SM OVC010 17/14 A2991
RMK AO2 CIG 007V012 PRESRR T01720139





000
SAUS44 KSHV 261812
MTRAQV
SPECI KAQV 261811Z AUTO VRB04G18KT 9SM BKN008 OVC020 18/16 A2988 RMK
AO2 T01780156





000
SAUS44 KSHV 261812
MTRAQV
SPECI KAQV 261811Z AUTO VRB04G18KT 9SM BKN008 OVC020 18/16 A2988 RMK
AO2 T01780156





000
SAUS44 KSHV 261757
MTRAQV
METAR KAQV 261756Z AUTO 28007KT 10SM SCT017 OVC022 21/17 A2987 RMK
AO2 SLP114 60000 T02110167 10217 20172 58004





000
SAUS44 KSHV 261757
MTRAQV
METAR KAQV 261756Z AUTO 28007KT 10SM SCT017 OVC022 21/17 A2987 RMK
AO2 SLP114 60000 T02110167 10217 20172 58004





000
SAUS44 KSHV 261755
MTRBKB
METAR KBKB 261754Z AUTO 00000KT 10SM BKN017 OVC026 23/17 A2986 RMK
AO2 SLP137 T02330172 10233 20167 58007





000
SAUS44 KSHV 261755
MTRBKB
METAR KBKB 261754Z AUTO 00000KT 10SM BKN017 OVC026 23/17 A2986 RMK
AO2 SLP137 T02330172 10233 20167 58007





000
SAUS44 KSHV 261725 COR
MTRBKB
SPECI KBKB 261722Z AUTO VRB03KT 10SM BKN015 OVC023 22/17 A2987 RMK
AO2 T02220172





000
SAUS44 KSHV 261724 COR
MTRBKB
SPECI KBKB 261722Z AUTO VRB03KT 10SM BKN015 OVC023 22/17 A2987 RMK
AO2 T02220172





000
SAUS44 KSHV 261724 COR
MTRBKB
SPECI KBKB 261722Z AUTO VRB03KT 10SM BKN015 OVC023 22/17 A2987 RMK
AO2 T02220172





000
SAUS44 KSHV 261701 COR
MTRAQV
METAR KAQV 261656Z AUTO VRB03KT 10SM BKN016 OVC023 21/17 A2988 RMK
AO2 SLP116 T02110172





000
SAUS44 KSHV 261701 COR
MTRAQV
METAR KAQV 261656Z AUTO VRB03KT 10SM BKN016 OVC023 21/17 A2988 RMK
AO2 SLP116 T02110172





000
SAUS44 KSHV 261659 COR
MTRAQV
METAR KAQV 261656Z AUTO VRB03KT 10SM BKN016 OVC023 21/17 A2988 RMK
AO2 SLP116 T02110172





000
SAUS44 KSHV 261659 COR
MTRAQV
METAR KAQV 261656Z AUTO VRB03KT 10SM BKN016 OVC023 21/17 A2988 RMK
AO2 SLP116 T02110172





000
SAUS44 KSHV 261658 COR
MTRAQV
METAR KAQV 261656Z AUTO VRB03KT 10SM BKN016 OVC023 21/17 A2988 RMK
AO2 SLP116 T02110172





000
SAUS44 KSHV 261658
MTRAQV
METAR KAQV 261656Z AUTO VRB03KT 10SM BKN016 OVC023 21/17 A2988 RMK
AO2 SLP116 T02110172





000
SAUS44 KSHV 261658 COR
MTRAQV
METAR KAQV 261656Z AUTO VRB03KT 10SM BKN016 OVC023 21/17 A2988 RMK
AO2 SLP116 T02110172





000
SAUS44 KSHV 261658
MTRAQV
METAR KAQV 261656Z AUTO VRB03KT 10SM BKN016 OVC023 21/17 A2988 RMK
AO2 SLP116 T02110172





000
SAUS44 KSHV 261655
MTRBKB
METAR KBKB 261654Z AUTO 32003KT 10SM OVC012 22/17 A2986 RMK AO2
SLP139 T02220172





000
SAUS44 KSHV 261643
MTRAQV
SPECI KAQV 261641Z AUTO VRB06KT 10SM OVC016 21/17 A2988 RMK AO2
T02110172





000
SAUS44 KSHV 261643
MTRAQV
SPECI KAQV 261641Z AUTO VRB06KT 10SM OVC016 21/17 A2988 RMK AO2
T02110172





000
SAUS44 KSHV 261558
MTRAQV
METAR KAQV 261556Z AUTO VRB03KT 9SM OVC011 20/18 A2989 RMK AO2 CIG
008V015 SLP118 T02000178





000
SAUS44 KSHV 261555
MTRBKB
METAR KBKB 261554Z AUTO 25004KT 10SM OVC011 22/17 A2988 RMK AO2
SLP144 T02220172





000
SAUS44 KSHV 261548
MTRAQV
SPECI KAQV 261546Z AUTO VRB04KT 7SM OVC009 20/18 A2989 RMK AO2 CIG
007V013 T02000178





000
SAUS44 KSHV 261548
MTRAQV
SPECI KAQV 261546Z AUTO VRB04KT 7SM OVC009 20/18 A2989 RMK AO2 CIG
007V013 T02000178





000
SAUS44 KSHV 261537
MTRAQV
SPECI KAQV 261536Z AUTO 26004KT 8SM OVC010 20/18 A2989 RMK AO2 CIG
006V012 T02000178





000
SAUS44 KSHV 261537
MTRBKB
SPECI KBKB 261535Z AUTO VRB03KT 10SM BKN011 OVC018 22/18 A2988 RMK
AO2 T02170178





000
SAUS44 KSHV 261509
MTRAQV
SPECI KAQV 261507Z AUTO 00000KT 5SM BR BKN006 OVC012 19/18 A2989 RMK
AO2 CIG 002V009 T01940178





000
SAUS44 KSHV 261509
MTRAQV
SPECI KAQV 261507Z AUTO 00000KT 5SM BR BKN006 OVC012 19/18 A2989 RMK
AO2 CIG 002V009 T01940178





000
SAUS44 KSHV 261457
MTRAQV
METAR KAQV 261456Z AUTO 00000KT 4SM BR BKN004 BKN008 OVC013 19/17
A2988 RMK AO2 CIG 002V007 SLP118 60000 T01890172 58003





000
SAUS44 KSHV 261457
MTRAQV
METAR KAQV 261456Z AUTO 00000KT 4SM BR BKN004 BKN008 OVC013 19/17
A2988 RMK AO2 CIG 002V007 SLP118 60000 T01890172 58003





000
SAUS44 KSHV 261456
MTRBKB
METAR KBKB 261454Z AUTO VRB03KT 10SM FEW005 OVC023 21/17 A2988 RMK
AO2 SLP144 T02060172 58005





000
SAUS44 KSHV 261447
MTRBKB
SPECI KBKB 261446Z AUTO VRB03KT 10SM FEW005 OVC025 21/17 A2988 RMK
AO2 T02060172





000
SAUS44 KSHV 261428
MTRAQV
SPECI KAQV 261426Z AUTO 00000KT 2SM BR BKN002 BKN007 OVC012 18/17
A2989 RMK AO2 CIG 002V005 T01780172





000
SAUS44 KSHV 261428
MTRAQV
SPECI KAQV 261426Z AUTO 00000KT 2SM BR BKN002 BKN007 OVC012 18/17
A2989 RMK AO2 CIG 002V005 T01780172





000
SAUS44 KSHV 261425
MTRBKB
SPECI KBKB 261423Z AUTO 00000KT 10SM BKN006 BKN030 OVC039 19/17
A2988 RMK AO2 T01940167





000
SAUS44 KSHV 261425
MTRBKB
SPECI KBKB 261423Z AUTO 00000KT 10SM BKN006 BKN030 OVC039 19/17
A2988 RMK AO2 T01940167





000
SAUS44 KSHV 261417
MTRBKB
SPECI KBKB 261415Z AUTO 00000KT 10SM SCT005 BKN031 OVC039 19/17
A2989 RMK AO2 T01940167





000
SAUS44 KSHV 261417
MTRBKB
SPECI KBKB 261415Z AUTO 00000KT 10SM SCT005 BKN031 OVC039 19/17
A2989 RMK AO2 T01940167





000
SAUS44 KSHV 261357
MTRAQV
METAR KAQV 261356Z AUTO VRB03KT 1SM BR OVC002 17/17 A2990 RMK AO2
SLP124 T01720167





000
SAUS44 KSHV 261357
MTRAQV
METAR KAQV 261356Z AUTO VRB03KT 1SM BR OVC002 17/17 A2990 RMK AO2
SLP124 T01720167





000
SAUS44 KSHV 261355
MTRBKB
METAR KBKB 261354Z AUTO 00000KT 9SM FEW011 OVC037 19/16 A2989 RMK
AO2 SLP147 T01890161





000
SAUS44 KSHV 261355
MTRBKB
METAR KBKB 261354Z AUTO 00000KT 9SM FEW011 OVC037 19/16 A2989 RMK
AO2 SLP147 T01890161





000
SAUS44 KSHV 261317
MTRBKB
SPECI KBKB 261316Z AUTO 00000KT 6SM BR BKN012 BKN039 18/16 A2989 RMK
AO2 T01830161





000
SAUS44 KSHV 261257
MTRAQV
METAR KAQV 261256Z AUTO 00000KT 3/4SM BR OVC002 17/17 A2990 RMK AO2
RAE05 SLP124 P0000 T01720167





000
SAUS44 KSHV 261257
MTRAQV
METAR KAQV 261256Z AUTO 00000KT 3/4SM BR OVC002 17/17 A2990 RMK AO2
RAE05 SLP124 P0000 T01720167





000
SAUS44 KSHV 261255
MTRBKB
METAR KBKB 261254Z AUTO 00000KT 4SM BR FEW006 FEW043 18/16 A2989 RMK
AO2 SLP149 T01780161





000
SAUS44 KSHV 261255
MTRBKB
METAR KBKB 261254Z AUTO 00000KT 4SM BR FEW006 FEW043 18/16 A2989 RMK
AO2 SLP149 T01780161





000
SAUS44 KSHV 261240
MTRBKB
SPECI KBKB 261239Z AUTO 00000KT 4SM BR FEW001 17/16 A2990 RMK AO2
T01720156





000
SAUS44 KSHV 261240
MTRAQV
SPECI KAQV 261239Z AUTO 00000KT 1 1/2SM BR OVC003 17/16 A2990 RMK
AO2 RAE05 P0000 T01720161





000
SAUS44 KSHV 261240
MTRBKB
SPECI KBKB 261239Z AUTO 00000KT 4SM BR FEW001 17/16 A2990 RMK AO2
T01720156





000
SAUS44 KSHV 261240
MTRAQV
SPECI KAQV 261239Z AUTO 00000KT 1 1/2SM BR OVC003 17/16 A2990 RMK
AO2 RAE05 P0000 T01720161





000
SAUS44 KSHV 261229
MTRBKB
SPECI KBKB 261228Z AUTO 00000KT 3SM BR SCT003 BKN016 BKN055 17/15
A2989 RMK AO2 T01670150





000
SAUS44 KSHV 261229
MTRBKB
SPECI KBKB 261228Z AUTO 00000KT 3SM BR SCT003 BKN016 BKN055 17/15
A2989 RMK AO2 T01670150





000
SAUS44 KSHV 261223
MTRAQV
SPECI KAQV 261222Z AUTO 00000KT 2 1/2SM BR OVC003 17/16 A2990 RMK
AO2 RAE05 P0000 T01720161





000
SAUS44 KSHV 261221
MTRBKB
SPECI KBKB 261220Z AUTO 00000KT 2SM BR FEW016 FEW022 SCT060 17/14
A2989 RMK AO2 T01670144





000
SAUS44 KSHV 261158
MTRAQV
METAR KAQV 261156Z AUTO 00000KT 4SM -RA BR OVC004 17/16 A2989 RMK
AO2 RAB22 SLP121 P0000 60000 T01720161 10172 20144 51008





000
SAUS44 KSHV 261158
MTRAQV
METAR KAQV 261156Z AUTO 00000KT 4SM -RA BR OVC004 17/16 A2989 RMK
AO2 RAB22 SLP121 P0000 60000 T01720161 10172 20144 51008





000
SAUS44 KSHV 261155
MTRBKB
METAR KBKB 261154Z AUTO 00000KT 5SM BR FEW023 BKN055 17/15 A2990 RMK
AO2 SLP150 T01720150 10178 20150 50014





000
SAUS44 KSHV 261155
MTRBKB
METAR KBKB 261154Z AUTO 00000KT 5SM BR FEW023 BKN055 17/15 A2990 RMK
AO2 SLP150 T01720150 10178 20150 50014





000
SAUS44 KSHV 261152
MTRAQV
SPECI KAQV 261151Z AUTO 00000KT 4SM -RA BR OVC004 17/16 A2989 RMK
AO2 RAB22 P0000





000
SAUS44 KSHV 261152
MTRAQV
SPECI KAQV 261151Z AUTO 00000KT 4SM -RA BR OVC004 17/16 A2989 RMK
AO2 RAB22 P0000





000
SAUS44 KSHV 261119
MTRAQV
SPECI KAQV 261117Z AUTO 00000KT 6SM BR OVC005 17/16 A2991 RMK AO2
T01720161





000
SAUS44 KSHV 261107
MTRBKB
SPECI KBKB 261106Z AUTO 00000KT 8SM SCT006 BKN032 OVC075 17/15 A2991
RMK AO2 T01720150





000
SAUS44 KSHV 261107
MTRBKB
SPECI KBKB 261106Z AUTO 00000KT 8SM SCT006 BKN032 OVC075 17/15 A2991
RMK AO2 T01720150





000
SAUS44 KSHV 261057
MTRAQV
METAR KAQV 261056Z AUTO 00000KT 5SM BR OVC003 17/16 A2991 RMK AO2
SLP125 T01720156





000
SAUS44 KSHV 261057
MTRAQV
METAR KAQV 261056Z AUTO 00000KT 5SM BR OVC003 17/16 A2991 RMK AO2
SLP125 T01720156





000
SAUS44 KSHV 261055
MTRBKB
METAR KBKB 261054Z AUTO 00000KT 7SM BKN005 OVC030 17/15 A2990 RMK
AO2 PRESRR SLP152 T01720150





000
SAUS44 KSHV 261055
MTRBKB
METAR KBKB 261054Z AUTO 00000KT 7SM BKN005 OVC030 17/15 A2990 RMK
AO2 PRESRR SLP152 T01720150





000
SAUS44 KSHV 261048
MTRBKB
SPECI KBKB 261047Z AUTO 00000KT 7SM SCT005 OVC030 17/15 A2989 RMK
AO2 T01720150





000
SAUS44 KSHV 261048
MTRBKB
SPECI KBKB 261047Z AUTO 00000KT 7SM SCT005 OVC030 17/15 A2989 RMK
AO2 T01720150





000
SAUS44 KSHV 261023
MTRAQV
SPECI KAQV 261020Z AUTO 26004KT 5SM BR OVC004 17/16 A2989 RMK AO2
PRESRR T01670156





000
SAUS44 KSHV 261023
MTRAQV
SPECI KAQV 261020Z AUTO 26004KT 5SM BR OVC004 17/16 A2989 RMK AO2
PRESRR T01670156





000
SAUS44 KSHV 261013
MTRBKB
SPECI KBKB 261011Z AUTO 00000KT 6SM BR SCT002 SCT018 OVC029 17/15
A2987 RMK AO2 T01720150





000
SAUS44 KSHV 261013
MTRBKB
SPECI KBKB 261011Z AUTO 00000KT 6SM BR SCT002 SCT018 OVC029 17/15
A2987 RMK AO2 T01720150





000
SAUS44 KSHV 261007
MTRAQV
SPECI KAQV 261006Z AUTO 00000KT 6SM BR BKN005 OVC026 16/15 A2987 RMK
AO2 T01610150





000
SAUS44 KSHV 261000 COR
MTRAQV
METAR KAQV 260956Z AUTO 00000KT 6SM BR SCT005 OVC025 16/15 A2987 RMK
AO2 SLP112 T01610150





000
SAUS44 KSHV 260959 COR
MTRAQV
METAR KAQV 260956Z AUTO 00000KT 6SM BR SCT005 OVC025 16/15 A2987 RMK
AO2 SLP112 T01610150





000
SAUS44 KSHV 260958 COR
MTRAQV
METAR KAQV 260956Z AUTO 00000KT 6SM BR SCT005 OVC025 16/15 A2987 RMK
AO2 SLP112 T01610150





000
SAUS44 KSHV 260957
MTRAQV
METAR KAQV 260956Z AUTO 00000KT 6SM BR SCT005 OVC025 16/15 A2987 RMK
AO2 SLP112 T01610150





000
SAUS44 KSHV 260955
MTRBKB
METAR KBKB 260954Z AUTO 00000KT 6SM BR BKN002 OVC029 16/14 A2986 RMK
AO2 SLP137 T01610139





000
SAUS44 KSHV 260915
MTRBKB
SPECI KBKB 260914Z AUTO 00000KT 4SM BR BKN002 15/13 A2985 RMK AO2
T01500133





000
SAUS44 KSHV 260904
MTRBKB
SPECI KBKB 260902Z AUTO 00000KT 3SM BR SCT002 16/13 A2985 RMK AO2
T01560133





000
SAUS44 KSHV 260857
MTRAQV
METAR KAQV 260856Z AUTO 00000KT 7SM BKN021 15/14 A2986 RMK AO2
SLP108 T01500144 55007





000
SAUS44 KSHV 260855
MTRBKB
METAR KBKB 260854Z AUTO 00000KT 2SM BR CLR 15/13 A2986 RMK AO2
SLP136 T01500133 55011





000
SAUS44 KSHV 260855
MTRBKB
METAR KBKB 260854Z AUTO 00000KT 2SM BR CLR 15/13 A2986 RMK AO2
SLP136 T01500133 55011





000
SAUS44 KSHV 260844
MTRBKB
SPECI KBKB 260843Z AUTO 00000KT 2 1/2SM BR CLR 16/13 A2986 RMK AO2
VIS 2V3 T01560133





000
SAUS44 KSHV 260844
MTRBKB
SPECI KBKB 260843Z AUTO 00000KT 2 1/2SM BR CLR 16/13 A2986 RMK AO2
VIS 2V3 T01560133





000
SAUS44 KSHV 260827
MTRBKB
SPECI KBKB 260826Z AUTO 00000KT 1 3/4SM BR CLR 16/13 A2985 RMK AO2
T01560133





000
SAUS44 KSHV 260757
MTRAQV
METAR KAQV 260756Z AUTO 00000KT 8SM CLR 15/14 A2986 RMK AO2 SLP108
T01500139





000
SAUS44 KSHV 260755
MTRBKB
METAR KBKB 260754Z AUTO 00000KT 7SM CLR 16/14 A2986 RMK AO2 SLP136
T01610139





000
SAUS44 KSHV 260755
MTRBKB
METAR KBKB 260754Z AUTO 00000KT 7SM CLR 16/14 A2986 RMK AO2 SLP136
T01610139





000
SAUS44 KSHV 260657
MTRAQV
METAR KAQV 260656Z AUTO 18003KT 9SM CLR 15/14 A2988 RMK AO2 SLP116
T01500139





000
SAUS44 KSHV 260657
MTRAQV
METAR KAQV 260656Z AUTO 18003KT 9SM CLR 15/14 A2988 RMK AO2 SLP116
T01500139





000
SAUS44 KSHV 260655
MTRBKB
METAR KBKB 260654Z AUTO 00000KT 10SM CLR 16/13 A2989 RMK AO2 SLP146
T01610133





000
SAUS44 KSHV 260655
MTRBKB
METAR KBKB 260654Z AUTO 00000KT 10SM CLR 16/13 A2989 RMK AO2 SLP146
T01610133





000
SAUS44 KSHV 260557
MTRAQV
METAR KAQV 260556Z AUTO 18004KT 10SM CLR 16/14 A2990 RMK AO2 SLP124
T01610144 10239 20161 402720111 56009





000
SAUS44 KSHV 260557
MTRAQV
METAR KAQV 260556Z AUTO 18004KT 10SM CLR 16/14 A2990 RMK AO2 SLP124
T01610144 10239 20161 402720111 56009





000
SAUS44 KSHV 260555
MTRBKB
METAR KBKB 260554Z AUTO VRB03KT 10SM CLR 17/14 A2990 RMK AO2 SLP151
T01720139 10244 20172 402830117 58009





000
SAUS44 KSHV 260555
MTRBKB
METAR KBKB 260554Z AUTO VRB03KT 10SM CLR 17/14 A2990 RMK AO2 SLP151
T01720139 10244 20172 402830117 58009





000
SAUS44 KSHV 260457
MTRAQV
METAR KAQV 260456Z AUTO VRB05KT 10SM CLR 17/15 A2991 RMK AO2 SLP128
T01720150





000
SAUS44 KSHV 260455
MTRBKB
METAR KBKB 260454Z AUTO VRB03KT 10SM CLR 18/14 A2991 RMK AO2 SLP156
T01830139





000
SAUS44 KSHV 260357
MTRAQV
METAR KAQV 260356Z AUTO 19005KT 10SM CLR 18/15 A2990 RMK AO2 SLP123
T01780150





000
SAUS44 KSHV 260355
MTRBKB
METAR KBKB 260354Z AUTO VRB03KT 10SM CLR 18/14 A2992 RMK AO2 SLP157
T01830139





000
SAUS44 KSHV 260257
MTRAQV
METAR KAQV 260256Z AUTO VRB03KT 9SM CLR 19/15 A2993 RMK AO2 SLP133
T01940150 53007





000
SAUS44 KSHV 260255
MTRBKB
METAR KBKB 260254Z AUTO 00000KT 10SM CLR 20/14 A2993 RMK AO2 SLP160
T02000144 53005





000
SAUS44 KSHV 260255
MTRBKB
METAR KBKB 260254Z AUTO 00000KT 10SM CLR 20/14 A2993 RMK AO2 SLP160
T02000144 53005





000
SAUS44 KSHV 260157
MTRAQV
METAR KAQV 260156Z AUTO 18004KT 8SM CLR 20/14 A2992 RMK AO2 SLP130
T02000139





000
SAUS44 KSHV 260155
MTRBKB
METAR KBKB 260154Z AUTO VRB04KT 10SM CLR 21/14 A2992 RMK AO2 SLP157
T02110144





000
SAUS44 KSHV 260057
MTRAQV
METAR KAQV 260056Z AUTO 16004KT 10SM CLR 21/14 A2991 RMK AO2 SLP126
T02110139





000
SAUS44 KSHV 260055
MTRBKB
METAR KBKB 260054Z AUTO VRB03KT 10SM CLR 22/14 A2990 RMK AO2 SLP152
T02220139





000
SAUS44 KSHV 252357
MTRAQV
METAR KAQV 252356Z AUTO 16006KT 9SM CLR 24/13 A2991 RMK AO2 SLP126
T02390128 10272 20239 55010





000
SAUS44 KSHV 252357
MTRAQV
METAR KAQV 252356Z AUTO 16006KT 9SM CLR 24/13 A2991 RMK AO2 SLP126
T02390128 10272 20239 55010





000
SAUS44 KSHV 252355
MTRBKB
METAR KBKB 252354Z AUTO VRB04KT 10SM CLR 24/13 A2991 RMK AO2 SLP155
T02440133 10283 20239 56009





000
SAUS44 KSHV 252355
MTRBKB
METAR KBKB 252354Z AUTO VRB04KT 10SM CLR 24/13 A2991 RMK AO2 SLP155
T02440133 10283 20239 56009





000
SAUS44 KSHV 252258
MTRAQV
METAR KAQV 252256Z AUTO 16006KT 7SM CLR 26/13 A2991 RMK AO2 SLP125
T02610128





000
SAUS44 KSHV 252258
MTRAQV
METAR KAQV 252256Z AUTO 16006KT 7SM CLR 26/13 A2991 RMK AO2 SLP125
T02610128





000
SAUS44 KSHV 252255
MTRBKB
METAR KBKB 252254Z AUTO 18004KT 10SM CLR 26/14 A2991 RMK AO2 SLP155
T02610139





000
SAUS44 KSHV 252157
MTRAQV
METAR KAQV 252156Z AUTO 17008KT 9SM CLR 27/13 A2992 RMK AO2 SLP130
T02720133





000
SAUS44 KSHV 252155
MTRBKB
METAR KBKB 252154Z AUTO VRB03KT 10SM CLR 28/14 A2992 RMK AO2 SLP158
T02780144





000
SAUS44 KSHV 252057
MTRAQV
METAR KAQV 252056Z AUTO VRB05KT 9SM CLR 27/13 A2994 RMK AO2 SLP136
T02670133 58024





000
SAUS44 KSHV 252055
MTRBKB
METAR KBKB 252054Z AUTO VRB04KT 10SM CLR 27/13 A2994 RMK AO2 SLP165
T02720133 56024





000
SAUS44 KSHV 251957
MTRAQV
METAR KAQV 251956Z AUTO VRB05KT 9SM SCT055 26/14 A2997 RMK AO2
SLP145 T02560139





000
SAUS44 KSHV 251955
MTRBKB
METAR KBKB 251954Z AUTO VRB04KT 10SM CLR 27/14 A2996 RMK AO2 SLP172
T02720139





000
SAUS44 KSHV 251857
MTRAQV
METAR KAQV 251856Z AUTO 10SM CLR 26/13 A2998 RMK AO2 SLP152
T02560128





000
SAUS44 KSHV 251857
MTRAQV
METAR KAQV 251856Z AUTO 10SM CLR 26/13 A2998 RMK AO2 SLP152
T02560128





000
SAUS44 KSHV 251855
MTRBKB
METAR KBKB 251854Z AUTO 5SM HZ BKN033 27/14 A2998 RMK AO2 SLP179
T02670139





000
SAUS44 KSHV 251855
MTRBKB
METAR KBKB 251854Z AUTO 5SM HZ BKN033 27/14 A2998 RMK AO2 SLP179
T02670139





000
SAUS44 KSHV 251758
MTRAQV
METAR KAQV 251756Z AUTO 18006KT 10SM CLR 24/14 A3001 RMK AO2 SLP161
T02390139 10239 20122 58015





000
SAUS44 KSHV 251758
MTRAQV
METAR KAQV 251756Z AUTO 18006KT 10SM CLR 24/14 A3001 RMK AO2 SLP161
T02390139 10239 20122 58015





000
SAUS44 KSHV 251755
MTRBKB
METAR KBKB 251754Z AUTO 07004KT 5SM HZ OVC036 24/14 A3001 RMK AO2
SLP189 T02390144 10239 20144 58013





000
SAUS44 KSHV 251755
MTRBKB
METAR KBKB 251754Z AUTO 07004KT 5SM HZ OVC036 24/14 A3001 RMK AO2
SLP189 T02390144 10239 20144 58013





000
SAUS44 KSHV 251657
MTRAQV
METAR KAQV 251656Z AUTO 10SM CLR 23/14 A3004 RMK AO2 SLP169
T02280139





000
SAUS44 KSHV 251657
MTRAQV
METAR KAQV 251656Z AUTO 10SM CLR 23/14 A3004 RMK AO2 SLP169
T02280139





000
SAUS44 KSHV 251655
MTRBKB
METAR KBKB 251654Z AUTO VRB03KT 10SM FEW026 23/14 A3003 RMK AO2
SLP197 T02330139





000
SAUS44 KSHV 251655
MTRBKB
METAR KBKB 251654Z AUTO VRB03KT 10SM FEW026 23/14 A3003 RMK AO2
SLP197 T02330139





000
SAUS44 KSHV 251651
MTRBKB
SPECI KBKB 251650Z AUTO 15005KT 10SM SCT025 23/14 A3003 RMK AO2





000
SAUS44 KSHV 251651
MTRBKB
SPECI KBKB 251650Z AUTO 15005KT 10SM SCT025 23/14 A3003 RMK AO2





    US Dept of Commerce
    National Oceanic and Atmospheric Administration
    National Weather Service
    1325 East West Highway
    Silver Spring, MD 20910
    Page Author: NWS Internet Services Team
Disclaimer
Information Quality
Credits
Glossary
Privacy Policy
Freedom of Information Act (FOIA)
About Us
Career Opportunities